createdAt,value
2023-04-26T00:01:39.065Z,62.20
2023-04-26T00:04:06.351Z,61.70
2023-04-26T00:06:35.143Z,62.30
2023-04-26T00:09:04.431Z,62.90
2023-04-26T00:11:37.541Z,63.00
2023-04-26T00:14:04.700Z,63.10
2023-04-26T00:16:31.745Z,62.00
2023-04-26T00:18:58.810Z,62.00
2023-04-26T00:21:26.248Z,61.60
2023-04-26T00:23:59.336Z,61.50
2023-04-26T00:26:41.418Z,61.50
2023-04-26T00:29:14.220Z,61.60
2023-04-26T00:31:52.699Z,61.80
2023-04-26T00:34:19.885Z,61.50
2023-04-26T00:36:46.934Z,61.50
2023-04-26T00:39:16.054Z,62.10
2023-04-26T00:41:43.204Z,61.20
2023-04-26T00:44:10.234Z,61.10
2023-04-26T00:46:37.399Z,62.00
2023-04-26T00:49:04.658Z,62.00
2023-04-26T00:51:31.692Z,62.40
2023-04-26T00:53:59.542Z,62.40
2023-04-26T00:56:26.637Z,62.90
2023-04-26T00:58:54.161Z,62.70
2023-04-26T01:01:21.763Z,62.90
2023-04-26T01:03:49.140Z,62.80
2023-04-26T01:06:16.476Z,62.80
2023-04-26T01:08:43.909Z,62.60
2023-04-26T01:11:11.073Z,62.60
2023-04-26T01:13:38.415Z,63.30
2023-04-26T01:16:08.086Z,63.60
2023-04-26T01:18:36.313Z,64.20
2023-04-26T01:21:04.409Z,64.00
2023-04-26T01:23:32.189Z,62.70
2023-04-26T01:25:59.276Z,62.40
2023-04-26T01:28:26.912Z,63.20
2023-04-26T01:30:54.115Z,62.90
2023-04-26T01:33:21.407Z,63.50
2023-04-26T01:35:48.393Z,62.90
2023-04-26T01:38:16.358Z,62.50
2023-04-26T01:40:46.343Z,63.00
2023-04-26T01:43:13.669Z,63.10
2023-04-26T01:45:41.499Z,63.70
2023-04-26T01:48:09.057Z,63.40
2023-04-26T01:50:38.336Z,63.70
2023-04-26T01:53:05.496Z,63.80
2023-04-26T01:55:33.946Z,63.70
2023-04-26T01:58:01.434Z,63.50
2023-04-26T02:00:31.524Z,64.20
2023-04-26T02:02:58.956Z,65.00
2023-04-26T02:05:26.303Z,65.50
2023-04-26T02:07:53.472Z,65.90
2023-04-26T02:10:20.505Z,66.90
2023-04-26T02:12:47.786Z,66.60
2023-04-26T02:15:15.455Z,66.70
2023-04-26T02:17:43.070Z,66.70
2023-04-26T02:20:10.605Z,67.20
2023-04-26T02:22:37.728Z,67.10
2023-04-26T02:25:05.632Z,67.50
2023-04-26T02:27:33.154Z,67.90
2023-04-26T02:30:00.221Z,68.00
2023-04-26T02:32:27.340Z,68.20
2023-04-26T02:34:54.373Z,68.20
2023-04-26T02:37:22.310Z,67.80
2023-04-26T02:39:55.096Z,68.30
2023-04-26T02:42:22.163Z,68.30
2023-04-26T02:44:49.255Z,68.00
2023-04-26T02:47:16.942Z,67.70
2023-04-26T02:49:43.966Z,67.80
2023-04-26T02:52:11.035Z,67.90
2023-04-26T02:54:38.047Z,68.40
2023-04-26T02:57:05.313Z,68.00
2023-04-26T02:59:32.722Z,68.00
2023-04-26T03:01:59.859Z,68.40
2023-04-26T03:04:28.236Z,68.50
2023-04-26T03:06:55.219Z,67.80
2023-04-26T03:09:22.384Z,67.70
2023-04-26T03:11:57.637Z,67.40
2023-04-26T03:14:25.103Z,67.80
2023-04-26T03:16:52.401Z,67.30
2023-04-26T03:19:19.645Z,67.70
2023-04-26T03:21:46.715Z,67.90
2023-04-26T03:24:13.764Z,67.70
2023-04-26T03:26:40.851Z,67.20
2023-04-26T03:29:08.653Z,67.30
2023-04-26T03:31:36.041Z,67.70
2023-04-26T03:34:03.078Z,66.70
2023-04-26T03:36:30.157Z,66.20
2023-04-26T03:38:57.332Z,66.60
2023-04-26T03:41:25.612Z,66.30
2023-04-26T03:43:52.761Z,66.30
2023-04-26T03:46:19.884Z,65.60
2023-04-26T03:48:47.001Z,66.10
2023-04-26T03:51:14.102Z,66.60
2023-04-26T03:53:42.012Z,66.20
2023-04-26T03:56:09.053Z,65.70
2023-04-26T03:58:36.413Z,65.80
2023-04-26T04:01:05.071Z,65.70
2023-04-26T04:03:32.281Z,66.10
2023-04-26T04:05:59.541Z,65.90
2023-04-26T04:08:29.707Z,65.60
2023-04-26T04:10:57.114Z,66.10
2023-04-26T04:13:24.167Z,65.80
2023-04-26T04:15:51.968Z,65.20
2023-04-26T04:18:19.117Z,65.60
2023-04-26T04:20:46.434Z,65.30
2023-04-26T04:23:13.546Z,65.70
2023-04-26T04:25:41.491Z,65.30
2023-04-26T04:28:08.829Z,65.50
2023-04-26T04:30:35.910Z,64.80
2023-04-26T04:33:03.852Z,64.90
2023-04-26T04:35:33.790Z,64.60
2023-04-26T04:38:01.917Z,64.80
2023-04-26T04:40:29.926Z,64.90
2023-04-26T04:42:57.195Z,64.30
2023-04-26T04:45:24.222Z,64.10
2023-04-26T04:47:54.387Z,64.10
2023-04-26T04:50:21.913Z,64.20
2023-04-26T04:52:48.968Z,64.40
2023-04-26T04:55:16.922Z,63.30
2023-04-26T04:57:44.001Z,63.90
2023-04-26T05:00:15.958Z,63.90
2023-04-26T05:02:43.190Z,63.90
2023-04-26T05:05:11.337Z,63.10
2023-04-26T05:07:38.502Z,63.40
2023-04-26T05:10:05.968Z,63.50
2023-04-26T05:12:33.845Z,63.60
2023-04-26T05:15:01.152Z,63.50
2023-04-26T05:17:28.299Z,63.30
2023-04-26T05:19:55.558Z,62.10
2023-04-26T05:22:22.645Z,60.30
2023-04-26T05:24:49.860Z,59.80
2023-04-26T05:27:17.059Z,60.00
2023-04-26T05:29:44.151Z,60.30
2023-04-26T05:32:11.287Z,59.80
2023-04-26T05:34:39.143Z,59.30
2023-04-26T05:37:06.173Z,59.40
2023-04-26T05:39:33.235Z,59.10
2023-04-26T05:42:00.320Z,58.50
2023-04-26T05:44:27.377Z,58.70
2023-04-26T05:46:54.503Z,58.80
2023-04-26T05:49:21.963Z,58.80
2023-04-26T05:51:49.183Z,58.30
2023-04-26T05:54:16.312Z,58.30
2023-04-26T05:56:43.466Z,58.60
2023-04-26T05:59:10.714Z,58.20
2023-04-26T06:01:37.797Z,58.60
2023-04-26T06:04:06.743Z,58.50
2023-04-26T06:06:34.254Z,58.10
2023-04-26T06:09:01.896Z,57.50
2023-04-26T06:11:29.071Z,57.40
2023-04-26T06:13:56.234Z,57.50
2023-04-26T06:16:23.508Z,57.90
2023-04-26T06:18:50.558Z,57.70
2023-04-26T06:21:20.590Z,57.50
2023-04-26T06:23:48.004Z,57.50
2023-04-26T06:26:15.618Z,57.60
2023-04-26T06:28:42.834Z,56.60
2023-04-26T06:31:10.479Z,57.60
2023-04-26T06:33:37.695Z,56.60
2023-04-26T06:36:05.430Z,56.50
2023-04-26T06:38:32.831Z,56.80
2023-04-26T06:41:00.129Z,56.90
2023-04-26T06:43:28.098Z,57.40
2023-04-26T06:45:55.785Z,57.40
2023-04-26T06:48:23.158Z,57.10
2023-04-26T06:50:50.314Z,57.30
2023-04-26T06:53:17.430Z,57.60
2023-04-26T06:55:44.833Z,56.60
2023-04-26T06:58:11.920Z,57.40
2023-04-26T07:00:39.405Z,57.20
2023-04-26T07:03:06.935Z,57.00
2023-04-26T07:05:34.100Z,57.10
2023-04-26T07:08:02.385Z,56.60
2023-04-26T07:10:29.717Z,55.30
2023-04-26T07:12:56.938Z,54.70
2023-04-26T07:15:24.151Z,54.20
2023-04-26T07:17:51.325Z,54.30
2023-04-26T07:20:19.972Z,53.50
2023-04-26T07:22:47.774Z,52.80
2023-04-26T07:25:14.979Z,53.40
2023-04-26T07:27:43.823Z,51.60
2023-04-26T07:30:26.644Z,52.10
2023-04-26T07:33:03.789Z,51.70
2023-04-26T07:35:31.061Z,52.30
2023-04-26T07:37:58.253Z,52.20
2023-04-26T07:40:26.366Z,52.30
2023-04-26T07:42:54.366Z,51.90
2023-04-26T07:45:21.744Z,50.90
2023-04-26T07:47:52.180Z,50.00
2023-04-26T07:50:19.685Z,49.10
2023-04-26T07:52:47.093Z,50.00
2023-04-26T07:55:15.347Z,49.80
2023-04-26T07:57:43.600Z,49.10
2023-04-26T08:00:11.781Z,49.00
2023-04-26T08:02:45.286Z,49.80
2023-04-26T08:05:13.946Z,49.00
2023-04-26T08:07:42.048Z,49.50
2023-04-26T08:10:12.609Z,48.70
2023-04-26T08:12:39.736Z,48.60
2023-04-26T08:15:07.270Z,49.60
2023-04-26T08:17:35.112Z,48.40
2023-04-26T08:20:02.400Z,48.00
2023-04-26T08:22:29.858Z,46.80
2023-04-26T08:24:58.159Z,47.00
2023-04-26T08:29:59.138Z,44.30
2023-04-26T08:32:26.676Z,45.40
2023-04-26T08:34:53.979Z,43.50
2023-04-26T08:37:21.085Z,43.10
2023-04-26T08:39:48.125Z,42.50
2023-04-26T08:42:17.061Z,41.60
2023-04-26T08:44:45.383Z,40.60
2023-04-26T08:47:51.268Z,41.30
2023-04-26T08:50:22.447Z,40.00
2023-04-26T08:52:51.612Z,38.60
2023-04-26T08:55:20.333Z,39.40
2023-04-26T08:57:48.313Z,39.60
2023-04-26T09:00:16.600Z,38.50
2023-04-26T09:02:48.114Z,37.10
2023-04-26T09:05:15.429Z,36.00
2023-04-26T09:08:25.134Z,36.00
2023-04-26T09:10:52.247Z,35.80
2023-04-26T09:13:19.793Z,34.50
2023-04-26T09:18:23.244Z,34.50
2023-04-26T09:21:07.955Z,34.10
2023-04-26T09:23:35.528Z,33.90
2023-04-26T09:26:21.920Z,33.60
2023-04-26T09:28:51.836Z,33.90
2023-04-26T09:31:39.792Z,32.70
2023-04-26T09:34:06.911Z,32.30
2023-04-26T09:36:35.054Z,32.50
2023-04-26T09:39:02.275Z,31.30
2023-04-26T09:41:44.023Z,30.90
2023-04-26T09:44:26.669Z,31.10
2023-04-26T09:47:01.967Z,31.80
2023-04-26T09:49:31.714Z,31.00
2023-04-26T09:52:05.986Z,30.90
2023-04-26T09:54:45.335Z,31.50
2023-04-26T09:57:13.604Z,30.00
2023-04-26T09:59:48.273Z,30.40
2023-04-26T10:02:26.576Z,30.70
2023-04-26T10:04:55.019Z,30.80
2023-04-26T10:07:23.325Z,31.30
2023-04-26T10:09:50.622Z,32.50
2023-04-26T10:12:19.222Z,32.90
2023-04-26T10:14:46.774Z,32.00
2023-04-26T10:17:14.191Z,32.70
2023-04-26T10:19:44.321Z,32.90
2023-04-26T10:22:33.978Z,32.80
2023-04-26T10:25:01.360Z,32.30
2023-04-26T10:27:43.907Z,32.50
2023-04-26T10:30:14.853Z,32.60
2023-04-26T10:32:57.390Z,32.70
2023-04-26T10:35:30.585Z,32.60
2023-04-26T10:38:04.143Z,32.60
2023-04-26T10:40:41.545Z,33.70
2023-04-26T10:43:26.524Z,32.50
2023-04-26T10:45:57.579Z,31.70
2023-04-26T10:48:31.663Z,31.70
2023-04-26T10:51:05.747Z,32.20
2023-04-26T10:53:34.627Z,32.10
2023-04-26T10:56:01.806Z,31.40
2023-04-26T10:58:35.241Z,32.00
2023-04-26T11:01:09.905Z,33.30
2023-04-26T11:03:38.258Z,33.90
2023-04-26T11:06:15.667Z,33.20
2023-04-26T11:09:08.607Z,32.60
2023-04-26T11:11:35.746Z,31.90
2023-04-26T11:14:03.151Z,31.70
2023-04-26T11:16:30.474Z,32.30
2023-04-26T11:18:57.728Z,33.50
2023-04-26T11:21:27.102Z,33.00
2023-04-26T11:24:12.811Z,32.20
2023-04-26T11:26:39.955Z,32.10
2023-04-26T11:29:13.773Z,32.30
2023-04-26T11:31:40.996Z,32.00
2023-04-26T11:34:08.559Z,31.60
2023-04-26T11:36:38.245Z,31.70
2023-04-26T11:39:06.975Z,31.40
2023-04-26T11:41:34.298Z,32.10
2023-04-26T11:44:02.087Z,32.50
2023-04-26T11:46:29.452Z,33.70
2023-04-26T11:48:56.766Z,32.70
2023-04-26T11:51:24.445Z,33.20
2023-04-26T11:53:52.074Z,31.70
2023-04-26T11:56:20.454Z,29.60
2023-04-26T11:58:51.691Z,30.40
2023-04-26T12:01:23.824Z,30.20
2023-04-26T12:03:55.625Z,30.70
2023-04-26T12:06:33.987Z,30.50
2023-04-26T12:09:07.121Z,30.00
2023-04-26T12:11:34.427Z,30.80
2023-04-26T12:14:01.918Z,30.60
2023-04-26T12:16:29.136Z,30.80
2023-04-26T12:18:59.243Z,31.30
2023-04-26T12:21:30.417Z,31.20
2023-04-26T12:23:58.213Z,30.20
2023-04-26T12:26:44.518Z,30.40
2023-04-26T12:29:11.891Z,30.60
2023-04-26T12:31:39.100Z,30.00
2023-04-26T12:34:06.372Z,29.30
2023-04-26T12:36:33.611Z,30.40
2023-04-26T12:39:03.955Z,29.90
2023-04-26T12:41:31.205Z,30.00
2023-04-26T12:43:58.742Z,29.40
2023-04-26T12:46:26.409Z,29.20
2023-04-26T12:48:58.558Z,29.10
2023-04-26T12:51:25.747Z,30.00
2023-04-26T12:53:53.320Z,30.00
2023-04-26T12:56:20.935Z,29.80
2023-04-26T12:58:53.375Z,29.80
2023-04-26T13:01:22.092Z,29.90
2023-04-26T13:03:49.580Z,29.90
2023-04-26T13:06:17.384Z,30.50
2023-04-26T13:08:44.743Z,29.70
2023-04-26T13:11:11.924Z,28.90
2023-04-26T13:13:44.708Z,29.50
2023-04-26T13:16:15.598Z,29.40
2023-04-26T13:19:05.602Z,29.70
2023-04-26T13:21:33.158Z,28.70
2023-04-26T13:24:00.722Z,29.00
2023-04-26T13:26:28.186Z,28.30
2023-04-26T13:28:55.862Z,29.20
2023-04-26T13:31:23.193Z,29.60
2023-04-26T13:33:58.816Z,29.00
2023-04-26T13:36:26.470Z,28.90
2023-04-26T13:38:53.825Z,28.40
2023-04-26T13:41:24.793Z,29.10
2023-04-26T13:43:52.414Z,29.60
2023-04-26T13:46:19.592Z,30.10
2023-04-26T13:48:46.665Z,30.00
2023-04-26T13:51:14.705Z,30.40
2023-04-26T13:53:41.896Z,29.60
2023-04-26T13:56:09.719Z,29.10
2023-04-26T13:58:36.906Z,30.00
2023-04-26T14:01:04.496Z,29.90
2023-04-26T14:03:32.811Z,29.20
2023-04-26T14:06:00.155Z,29.60
2023-04-26T14:08:27.370Z,29.40
2023-04-26T14:10:54.571Z,29.00
2023-04-26T14:13:22.210Z,29.10
2023-04-26T14:15:49.716Z,29.70
2023-04-26T14:18:17.698Z,29.50
2023-04-26T14:20:45.233Z,29.80
2023-04-26T14:23:12.473Z,29.60
2023-04-26T14:25:39.795Z,29.60
2023-04-26T14:28:08.546Z,29.90
2023-04-26T14:30:35.745Z,29.80
2023-04-26T14:33:03.271Z,30.00
2023-04-26T14:35:30.380Z,30.50
2023-04-26T14:37:57.550Z,30.10
2023-04-26T14:40:25.396Z,31.20
2023-04-26T14:42:52.671Z,30.40
2023-04-26T14:45:22.265Z,29.90
2023-04-26T14:47:52.713Z,30.90
2023-04-26T14:50:22.813Z,30.80
2023-04-26T14:52:49.942Z,30.00
2023-04-26T14:55:22.505Z,30.20
2023-04-26T14:57:50.126Z,31.30
2023-04-26T15:00:20.829Z,31.20
2023-04-26T15:02:48.288Z,30.50
2023-04-26T15:05:18.996Z,30.60
2023-04-26T15:11:48.093Z,32.20
2023-04-26T15:14:15.325Z,31.90
2023-04-26T15:16:45.334Z,30.90
2023-04-26T15:22:02.403Z,31.70
2023-04-26T15:24:51.297Z,31.10
2023-04-26T15:27:21.623Z,30.80
2023-04-26T15:29:48.970Z,30.40
2023-04-26T15:32:16.286Z,31.10
2023-04-26T15:34:45.386Z,31.20
2023-04-26T15:37:12.597Z,31.90
2023-04-26T15:40:16.893Z,30.80
2023-04-26T15:42:49.415Z,30.60
2023-04-26T15:45:16.814Z,30.70
2023-04-26T15:47:45.824Z,30.90
2023-04-26T15:50:13.191Z,31.00
2023-04-26T15:52:41.153Z,31.00
2023-04-26T15:55:47.361Z,31.50
2023-04-26T15:58:23.975Z,31.80
2023-04-26T16:00:51.943Z,32.70
2023-04-26T16:03:19.662Z,32.20
2023-04-26T16:05:47.162Z,32.60
2023-04-26T16:08:39.290Z,32.60
2023-04-26T16:11:09.809Z,32.70
2023-04-26T16:13:37.655Z,32.70
2023-04-26T16:16:39.313Z,33.10
2023-04-26T16:19:08.068Z,33.00
2023-04-26T16:29:44.632Z,31.90
2023-04-26T16:32:12.297Z,31.70
2023-04-26T16:34:39.984Z,32.30
2023-04-26T17:18:47.704Z,33.70
2023-04-26T17:21:15.201Z,33.70
2023-04-26T17:23:43.727Z,34.00
2023-04-26T17:26:11.313Z,34.40
2023-04-26T17:28:44.819Z,35.30
2023-04-26T17:31:12.480Z,34.60
2023-04-26T17:33:39.971Z,34.30
2023-04-26T17:36:07.420Z,34.50
2023-04-26T17:38:34.636Z,34.40
2023-04-26T17:41:04.298Z,34.90
2023-04-26T17:43:31.444Z,35.20
2023-04-26T17:45:58.591Z,35.50
2023-04-26T17:48:25.855Z,36.20
2023-04-26T17:50:53.697Z,35.80
2023-04-26T17:53:21.693Z,35.60
2023-04-26T17:56:14.516Z,36.10
2023-04-26T17:58:41.594Z,36.30
2023-04-26T18:01:09.798Z,36.10
2023-04-26T18:03:37.079Z,36.00
2023-04-26T18:06:04.846Z,36.40
2023-04-26T18:08:31.907Z,37.30
2023-04-26T18:10:59.030Z,38.10
2023-04-26T18:13:26.343Z,38.60
2023-04-26T18:15:55.158Z,38.50
2023-04-26T18:18:22.183Z,38.40
2023-04-26T18:20:49.234Z,39.00
2023-04-26T18:23:16.572Z,39.10
2023-04-26T18:25:43.784Z,39.40
2023-04-26T18:28:10.927Z,39.70
2023-04-26T18:30:38.045Z,40.00
2023-04-26T18:33:05.238Z,39.80
2023-04-26T18:35:32.658Z,39.70
2023-04-26T18:37:59.866Z,39.20
2023-04-26T18:40:27.391Z,39.10
2023-04-26T18:42:54.515Z,39.20
2023-04-26T18:45:21.700Z,39.70
2023-04-26T18:47:48.995Z,40.10
2023-04-26T18:50:17.669Z,40.50
2023-04-26T18:52:44.952Z,41.30
2023-04-26T18:55:12.146Z,41.30
2023-04-26T18:57:39.260Z,41.40
2023-04-26T19:00:08.164Z,41.60
2023-04-26T19:02:40.172Z,41.60
2023-04-26T19:05:08.621Z,42.00
2023-04-26T19:07:36.186Z,42.20
2023-04-26T19:10:04.783Z,42.40
2023-04-26T19:12:32.186Z,42.70
2023-04-26T19:14:59.690Z,43.10
2023-04-26T19:17:27.227Z,43.10
2023-04-26T19:19:55.581Z,43.70
2023-04-26T19:22:27.407Z,43.30
2023-04-26T19:27:41.878Z,44.00
2023-04-26T19:30:11.788Z,43.40
2023-04-26T19:32:42.511Z,43.70
2023-04-26T19:35:10.176Z,43.60
2023-04-26T19:37:37.476Z,44.10
2023-04-26T19:40:08.409Z,44.00
2023-04-26T19:42:35.718Z,43.90
2023-04-26T19:45:03.225Z,44.00
2023-04-26T19:47:33.343Z,43.90
2023-04-26T19:50:00.636Z,43.70
2023-04-26T19:52:33.344Z,43.80
2023-04-26T19:55:06.492Z,43.60
2023-04-26T19:57:33.992Z,43.50
2023-04-26T20:00:01.471Z,43.70
2023-04-26T20:02:34.018Z,43.70
2023-04-26T20:05:01.452Z,43.70
2023-04-26T20:07:28.697Z,44.00
2023-04-26T20:09:55.850Z,44.50
2023-04-26T20:12:22.923Z,44.40
2023-04-26T20:14:50.417Z,44.30
2023-04-26T20:17:17.792Z,44.80
2023-04-26T20:19:44.969Z,45.00
2023-04-26T20:22:12.176Z,45.10
2023-04-26T20:24:39.369Z,45.40
2023-04-26T20:27:06.537Z,45.80
2023-04-26T20:29:33.640Z,46.10
2023-04-26T20:32:00.842Z,45.90
2023-04-26T20:34:28.084Z,46.00
2023-04-26T20:37:01.484Z,47.00
2023-04-26T20:39:29.702Z,47.40
2023-04-26T20:41:57.194Z,47.30
2023-04-26T20:44:24.419Z,47.30
2023-04-26T20:46:51.705Z,47.50
2023-04-26T20:49:18.969Z,47.70
2023-04-26T20:51:46.150Z,47.60
2023-04-26T20:54:13.272Z,47.90
2023-04-26T20:56:40.461Z,48.20
2023-04-26T20:59:08.571Z,48.60
2023-04-26T21:01:36.532Z,48.30
2023-04-26T21:04:03.822Z,48.40
2023-04-26T21:06:31.340Z,48.90
2023-04-26T21:08:58.460Z,48.60
2023-04-26T21:11:25.717Z,48.80
2023-04-26T21:13:54.277Z,48.50
2023-04-26T21:16:21.543Z,48.20
2023-04-26T21:19:14.320Z,48.60
2023-04-26T21:21:41.631Z,48.80
2023-04-26T21:24:08.878Z,48.90
2023-04-26T21:26:36.145Z,48.60
2023-04-26T21:29:03.578Z,48.90
2023-04-26T21:31:30.912Z,49.30
2023-04-26T21:33:58.498Z,49.30
2023-04-26T21:36:26.631Z,49.40
2023-04-26T21:38:53.743Z,49.70
2023-04-26T21:41:20.977Z,49.50
2023-04-26T21:43:48.136Z,49.80
2023-04-26T21:46:15.492Z,49.90
2023-04-26T21:48:42.797Z,50.20
2023-04-26T21:51:09.881Z,50.20
2023-04-26T21:53:37.044Z,50.30
2023-04-26T21:56:06.322Z,50.40
2023-04-26T21:58:36.930Z,50.20
2023-04-26T22:01:11.263Z,50.00
2023-04-26T22:03:38.792Z,49.80
2023-04-26T22:06:06.373Z,49.90
2023-04-26T22:08:33.587Z,49.90
2023-04-26T22:11:00.817Z,49.80
2023-04-26T22:13:28.018Z,50.00
2023-04-26T22:15:55.141Z,50.20
2023-04-26T22:18:22.490Z,50.20
2023-04-26T22:20:49.690Z,50.40
2023-04-26T22:23:16.959Z,50.50
2023-04-26T22:25:44.178Z,50.70
2023-04-26T22:28:11.432Z,51.10
2023-04-26T22:30:38.617Z,51.50
2023-04-26T22:33:07.189Z,51.70
2023-04-26T22:35:34.919Z,51.90
2023-04-26T22:38:02.063Z,52.10
2023-04-26T22:40:29.227Z,52.30
2023-04-26T22:42:56.522Z,52.80
2023-04-26T22:45:26.093Z,52.90
2023-04-26T22:47:53.634Z,53.40
2023-04-26T22:50:27.186Z,53.40
2023-04-26T22:52:59.193Z,53.40
2023-04-26T22:55:38.536Z,53.10
2023-04-26T22:58:22.981Z,52.80
2023-04-26T23:00:50.242Z,53.30
2023-04-26T23:03:17.447Z,53.00
2023-04-26T23:05:45.787Z,53.20
2023-04-26T23:08:13.011Z,53.10
2023-04-26T23:10:40.367Z,53.10
2023-04-26T23:13:07.493Z,53.20
2023-04-26T23:15:34.633Z,53.60
2023-04-26T23:18:01.763Z,53.70
2023-04-26T23:20:29.127Z,53.80
2023-04-26T23:22:56.264Z,53.90
2023-04-26T23:25:23.532Z,54.20
2023-04-26T23:27:51.093Z,54.30
2023-04-26T23:30:18.456Z,54.50
2023-04-26T23:32:45.669Z,54.60
2023-04-26T23:35:12.947Z,54.90
2023-04-26T23:37:40.196Z,55.10
2023-04-26T23:40:09.480Z,55.20
2023-04-26T23:42:37.064Z,55.40
2023-04-26T23:45:04.803Z,55.50
2023-04-26T23:47:32.265Z,55.60
2023-04-26T23:49:59.526Z,55.50
2023-04-26T23:52:26.997Z,55.40
2023-04-26T23:54:54.135Z,55.40
2023-04-26T23:57:21.475Z,55.60
2023-04-26T23:59:48.760Z,55.80
